Latest Coastal Weather Observations for Cape Naturaliste

IDW60701

Issued at 10:02 am WST Saturday 28 February 2015 (issued every 10 minutes, with the page automatically refreshed every 10 minutes)

About coastal observations | Map of coastal stations | Coastal observations for WA | Marine services | Other Formats
Station Details ID: 009519 Name: CAPE NATURALISTE Lat: -33.54 Lon: 115.02 Height: 109.0 m
Data from the previous 72 hours. | See also: Recent months at Cape Naturaliste
Date/Time
WST
Temp

°C
Wind Pressure Rain
since 9am
mm
Weather Cloud Vis
km
Sea
Height
m
Swell
Dir
 
Speed
knots
Gust
knots
hPa Trend Height
m
Period
s
Dir
28/10:00am 22.3 ESE 12 17 1018.8 - 0.0 - - - - - - -
28/09:30am 21.0 SE 13 20 1018.8 - 0.0 - - - - - - -
28/09:00am 20.1 SE 14 19 1018.6 - 0.0 - - - - - - -
28/08:30am 18.7 SE 14 18 1018.8 - 0.0 - - - - - - -
28/08:00am 17.8 SE 15 21 1018.8 - 0.0 - - - - - - -
28/07:30am 16.7 SE 13 19 1018.7 - 0.0 - - - - - - -
28/07:00am 15.3 SSE 13 17 1018.3 - 0.0 - - - - - - -
28/06:30am 14.1 SSE 12 15 1017.9 - 0.0 - - - - - - -
28/06:00am 13.7 SSE 13 16 1017.5 - 0.0 - - - - - - -
28/05:30am 13.7 SSE 12 16 1017.1 - 0.0 - - - - - - -
28/05:00am 13.8 SSE 11 14 1016.9 - 0.0 - - - - - - -
28/04:30am 13.7 SSE 10 12 1016.6 - 0.0 - - - - - - -
28/04:00am 13.8 SSE 8 10 1016.3 - 0.0 - - - - - - -
28/03:30am 14.0 SSE 8 11 1016.0 - 0.0 - - - - - - -
28/03:00am 14.7 SSE 8 12 1015.9 - 0.0 - - - - - - -
28/02:30am 15.1 SSE 9 11 1015.8 - 0.0 - - - - - - -
28/02:00am 15.3 SSE 9 13 1015.7 - 0.0 - - - - - - -
28/01:30am 15.5 SSE 11 14 1015.6 - 0.0 - - - - - - -
28/01:00am 15.9 SSE 13 18 1015.5 - 0.0 - - - - - - -
28/12:30am 15.8 SSE 11 15 1015.3 - 0.0 - - - - - - -
28/12:00am 15.9 SSE 11 16 1015.1 - 0.0 - - - - - - -
 
Date/Time
WST
Temp

°C
Wind Pressure Rain
since 9am
mm
Weather Cloud Vis
km
Sea
Height
m
Swell
Dir
 
Speed
knots
Gust
knots
hPa Trend Height
m
Period
s
Dir
27/11:30pm 16.1 SSE 12 16 1015.0 - 0.0 - - - - - - -
27/11:00pm 16.4 SE 13 18 1014.7 - 0.0 - - - - - - -
27/10:30pm 16.6 SSE 11 17 1014.7 - 0.0 - - - - - - -
27/10:00pm 17.0 SSE 14 24 1014.6 - 0.0 - - - - - - -
27/09:30pm 17.4 SSE 16 23 1014.4 - 0.0 - - - - - - -
27/09:00pm 17.7 S 16 22 1014.2 - 0.0 - - - - - - -
27/08:30pm 17.9 S 14 20 1013.9 - 0.0 - - - - - - -
27/08:00pm 18.4 S 13 21 1013.4 - 0.0 - - - - - - -
27/07:30pm 18.7 S 13 16 1012.8 - 0.0 - - - - - - -
27/07:00pm 19.4 SSW 20 27 1012.1 - 0.0 - - - - - - -
27/06:30pm 20.2 SSW 19 26 1011.8 - 0.0 - - - - - - -
27/06:00pm 20.8 SSW 19 25 1011.4 - 0.0 - - - - - - -
27/05:30pm 21.6 SSW 17 24 1011.2 - 0.0 - - - - - - -
27/05:00pm 22.3 SSW 18 23 1011.3 - 0.0 - - - - - - -
27/04:30pm 22.9 SSW 15 22 1011.0 - 0.0 - - - - - - -
27/04:00pm 23.4 SSW 15 21 1010.8 - 0.0 - - - - - - -
27/03:30pm 23.5 SSW 16 22 1010.8 - 0.0 - - - - - - -
27/03:00pm 24.2 SW 15 19 1010.7 - 0.0 - - - - - - -
27/02:30pm 24.0 SSW 15 20 1010.9 - 0.0 - - - - - - -
27/02:00pm 24.1 SSW 14 21 1010.8 - 0.0 - - - - - - -
27/01:30pm 23.7 SW 14 18 1010.8 - 0.0 - - - - - - -
27/01:00pm 24.4 SW 13 17 1010.9 - 0.0 - - - - - - -
27/12:30pm 24.3 SW 13 17 1010.9 - 0.0 - - - - - - -
27/12:00pm 23.8 SW 15 20 1010.5 - 0.0 - - - - - - -
27/11:30am 23.5 SW 16 19 1010.7 - 0.0 - - - - - - -
27/11:00am 23.4 SSW 15 21 1010.6 - 0.0 - - - - - - -
27/10:30am 22.9 SSW 15 21 1010.5 - 0.0 - - - - - - -
27/10:00am 22.7 SSW 16 21 1010.4 - 0.0 - - - - - - -
27/09:30am 22.2 SSW 16 21 1010.2 - 0.0 - - - - - - -
27/09:00am 22.2 SSW 13 22 1009.9 - 0.8 - - - - - - -
27/08:30am 20.9 SSW 16 21 1009.6 - 0.8 - - - - - - -
27/08:00am 20.5 SSW 16 23 1009.2 - 0.8 - - - - - - -
27/07:30am 19.7 SSW 15 21 1008.9 - 0.8 - - - - - - -
27/07:00am 18.9 S 14 19 1008.9 - 0.8 - - - - - - -
27/06:30am 17.6 S 14 18 1008.4 - 0.8 - - - - - - -
27/06:00am 17.4 SSW 16 23 1008.0 - 0.8 - - - - - - -
27/05:30am 17.9 SSW 17 26 1007.5 - 0.8 - - - - - - -
27/05:00am 17.8 SSW 18 25 1007.1 - 0.8 - - - - - - -
27/04:30am 18.1 SSW 19 27 1006.9 - 0.8 - - - - - - -
27/04:00am 17.9 SSW 18 23 1006.5 - 0.8 - - - - - - -
27/03:30am 17.9 SSW 15 23 1006.3 - 0.8 - - - - - - -
27/03:00am 17.8 S 14 19 1006.0 - 0.8 - - - - - - -
27/02:30am 18.2 SSW 17 22 1006.1 - 0.8 - - - - - - -
27/02:00am 18.4 SSW 17 23 1006.1 - 0.8 - - - - - - -
27/01:30am 18.4 SSW 21 27 1006.1 - 0.8 - - - - - - -
27/01:00am 18.5 SSW 20 26 1006.1 - 0.8 - - - - - - -
27/12:30am 18.7 SSW 18 24 1006.2 - 0.8 - - - - - - -
27/12:00am 18.7 SSW 15 22 1006.4 - 0.8 - - - - - - -
 
Date/Time
WST
Temp

°C
Wind Pressure Rain
since 9am
mm
Weather Cloud Vis
km
Sea
Height
m
Swell
Dir
 
Speed
knots
Gust
knots
hPa Trend Height
m
Period
s
Dir
26/11:30pm 18.7 SSW 12 16 1006.6 - 0.8 - - - - - - -
26/11:00pm 18.9 SSW 12 14 1006.5 - 0.8 - - - - - - -
26/10:30pm 18.9 S 11 16 1006.5 - 0.8 - - - - - - -
26/10:00pm 19.4 SSW 12 16 1006.7 - 0.8 - - - - - - -
26/09:30pm 19.4 S 10 14 1006.8 - 0.8 - - - - - - -
26/09:00pm 19.8 S 11 14 1006.5 - 0.8 - - - - - - -
26/08:30pm 20.2 S 9 12 1006.4 - 0.8 - - - - - - -
26/08:00pm 20.4 SSE 6 8 1006.1 - 0.8 - - - - - - -
26/07:30pm 20.6 S 11 17 1005.6 - 0.8 - - - - - - -
26/07:00pm 21.2 SSW 15 22 1005.1 - 0.8 - - - - - - -
26/06:30pm 21.2 SSW 18 24 1005.0 - 0.8 - - - - - - -
26/06:00pm 21.3 SSW 21 29 1004.8 - 0.8 - - - - - - -
26/05:30pm 21.8 SSW 24 32 1004.7 - 0.8 - - - - - - -
26/05:00pm 22.2 SSW 20 28 1004.7 - 0.8 - - - - - - -
26/04:30pm 21.9 SSW 19 25 1004.7 - 0.8 - - - - - - -
26/04:00pm 23.3 SSW 18 24 1004.8 - 0.8 - - - - - - -
26/03:30pm 24.7 SSW 17 23 1004.8 - 0.8 - - - - - - -
26/03:00pm 25.2 SSW 17 23 1005.0 - 0.8 - - - - - - -
26/02:30pm 24.6 SSW 16 23 1005.5 - 0.8 - - - - - - -
26/02:00pm 23.9 SSW 17 24 1005.5 - 0.8 - - - - - - -
26/01:30pm 23.6 SSW 13 19 1005.7 - 0.8 - - - - - - -
26/01:00pm 24.3 SSW 15 20 1006.1 - 0.8 - - - - - - -
26/12:30pm 24.2 SSW 15 20 1006.5 - 0.8 - - - - - - -
26/12:00pm 24.0 SW 13 17 1006.8 - 0.8 Recent precip. - - - - - -
26/11:30am 27.3 E 8 10 1006.6 - 0.6 - - - - - - -
26/11:00am 27.3 E 6 8 1007.0 - 0.6 - - - - - - -
26/10:30am 23.8 SSE 8 13 1007.3 - 0.6 - - - - - - -
26/10:00am 22.1 SW 5 9 1007.9 - 0.6 - - - - - - -
26/09:30am 21.6 SE 10 12 1007.2 - 0.6 - - - - - - -
26/09:00am 21.3 ESE 10 12 1007.4 - 2.2 Rain - - - - - -
26/08:30am 22.2 SE 10 13 1008.2 - 2.0 - - - - - - -
26/08:00am 19.5 SE 13 15 1008.1 - 2.0 - - - - - - -
26/07:30am 19.1 SE 11 14 1008.0 - 2.0 - - - - - - -
26/07:00am 19.1 SE 12 15 1008.1 - 1.2 - - - - - - -
26/06:30am 19.8 SE 12 16 1007.0 - 0.0 - - - - - - -
26/06:00am 20.2 SE 13 17 1006.9 - 0.0 - - - - - - -
26/05:30am 21.1 SE 13 19 1007.3 - 0.0 - - - - - - -
26/05:00am 21.0 SE 15 18 1006.4 - 0.0 - - - - - - -
26/04:30am 21.1 ESE 15 19 1006.0 - 0.0 - - - - - - -
26/04:00am 20.9 SE 16 20 1005.7 - 0.0 - - - - - - -
26/03:30am 21.1 SE 15 19 1005.6 - 0.0 - - - - - - -
26/03:00am 21.3 SE 15 19 1006.3 - 0.0 - - - - - - -
26/02:30am 21.4 ESE 14 18 1006.7 - 0.0 - - - - - - -
26/02:00am 21.7 SE 16 21 1005.8 - 0.0 - - - - - - -
26/01:30am 21.5 SE 14 18 1006.8 - 0.0 - - - - - - -
26/01:00am 21.9 SE 18 22 1006.6 - 0.0 - - - - - - -
26/12:30am 21.9 ESE 17 22 1007.0 - 0.0 - - - - - - -
26/12:00am 21.3 ESE 16 20 1007.4 - 0.0 - - - - - - -
 
Date/Time
WST
Temp

°C
Wind Pressure Rain
since 9am
mm
Weather Cloud Vis
km
Sea
Height
m
Swell
Dir
 
Speed
knots
Gust
knots
hPa Trend Height
m
Period
s
Dir
25/11:30pm 21.8 SE 17 24 1007.6 - 0.0 - - - - - - -
25/11:00pm 22.0 SE 17 23 1007.5 - 0.0 - - - - - - -
25/10:30pm 21.8 SE 17 22 1007.7 - 0.0 - - - - - - -
25/10:00pm 21.7 SE 17 23 1007.7 - 0.0 - - - - - - -
25/09:30pm 21.9 SE 18 29 1007.8 - 0.0 - - - - - - -
25/09:23pm 22.1 SSE 19 29 1007.9 - 0.0 - - - - - - -
25/09:00pm 21.9 SSE 14 21 1008.0 - 0.0 - - - - - - -
25/08:30pm 21.6 SSE 10 16 1008.1 - 0.0 - - - - - - -
25/08:00pm 20.6 SSW 11 14 1007.5 - 0.0 - - - - - - -
25/07:30pm 21.1 SSW 11 14 1007.2 - 0.0 - - - - - - -
25/07:00pm 21.9 SSW 15 20 1006.9 - 0.0 - - - - - - -
25/06:30pm 24.5 S 12 16 1006.6 - 0.0 - - - - - - -
25/06:00pm 24.0 SSW 11 15 1006.8 - 0.0 - - - - - - -
25/05:30pm 24.5 S 12 16 1006.9 - 0.0 - - - - - - -
25/05:00pm 24.1 SSW 13 19 1007.3 - 0.0 - - - - - - -
25/04:30pm 24.4 SSW 15 19 1007.2 - 0.0 - - - - - - -
25/04:00pm 27.3 SSW 15 20 1007.2 - 0.0 - - - - - - -
25/03:30pm 24.7 SSW 15 21 1007.2 - 0.0 - - - - - - -
25/03:00pm 25.9 SSW 19 26 1007.3 - 0.0 - - - - - - -
25/02:30pm 27.2 SSW 13 19 1007.7 - 0.0 - - - - - - -
25/02:00pm 28.1 SSW 13 19 1007.8 - 0.0 - - - - - - -
25/01:30pm 27.5 SSW 11 15 1008.4 - 0.0 - - - - - - -
25/01:00pm 26.3 SW 11 15 1008.6 - 0.0 - - - - - - -
25/12:30pm 29.4 SSW 9 15 1008.9 - 0.0 - - - - - - -
25/12:00pm 27.4 SW 10 14 1009.1 - 0.0 - - - - - - -
25/11:30am 28.0 SSW 6 11 1009.6 - 0.0 - - - - - - -
25/11:00am 26.6 SE 6 10 1009.8 - 0.0 - - - - - - -
25/10:30am 24.9 E 11 14 1010.3 - 0.0 - - - - - - -

Other Formats:

Comma delimited format used in spreadsheet applications
http://www.bom.gov.au/fwo/IDW60701/IDW60701.94600.axf

JavaScript Object Notation format (JSON) in row-major order
http://www.bom.gov.au/fwo/IDW60701/IDW60701.94600.json